Time;durP1;ratioP1;P1;durP2;ratioP2;P2;SDS_P1;SDS_P2;PMS_P1;PMS_P2;Temp;Humidity;BMP_temperature;BMP_pressure;BME280_temperature;BME280_humidity;BME280_pressure;Samples;Min_cycle;Max_cycle;Signal;HPM_P1;HPM_P2
2023/05/10 00:00:39;;;;;;;1.60;1.50;;;10.20;99.90;;;;;;4949793;28;20046;-66
2023/05/10 00:03:05;;;;;;;2.15;1.88;;;10.10;99.90;;;;;;4951437;28;20026;-66
2023/05/10 00:05:31;;;;;;;2.20;2.00;;;10.10;99.90;;;;;;4954231;28;20031;-67
2023/05/10 00:07:57;;;;;;;3.70;2.63;;;10.10;99.90;;;;;;4951615;28;20046;-68
2023/05/10 00:10:22;;;;;;;2.50;1.98;;;10.10;99.90;;;;;;4952086;28;20039;-66
2023/05/10 00:12:48;;;;;;;6.07;3.97;;;10.20;99.90;;;;;;4950300;28;20043;-66
2023/05/10 00:15:14;;;;;;;3.00;2.40;;;10.30;99.90;;;;;;4945325;28;20416;-66
2023/05/10 00:17:40;;;;;;;2.28;1.77;;;10.30;99.90;;;;;;4952314;28;20045;-66
2023/05/10 00:20:06;;;;;;;2.00;1.80;;;10.30;99.90;;;;;;4948702;28;20043;-65
2023/05/10 00:22:32;;;;;;;3.15;2.50;;;10.30;99.90;;;;;;4953114;28;20105;-72
2023/05/10 00:24:59;;;;;;;2.75;1.58;;;10.40;99.90;;;;;;4947872;28;20031;-72
2023/05/10 00:27:25;;;;;;;3.70;2.70;;;10.50;99.90;;;;;;4950587;28;20031;-71
2023/05/10 00:29:50;;;;;;;2.42;2.00;;;10.50;99.90;;;;;;4945323;28;20066;-72
2023/05/10 00:32:16;;;;;;;2.92;1.98;;;10.60;99.90;;;;;;4943836;28;20590;-72
2023/05/10 00:34:42;;;;;;;4.32;2.30;;;10.60;99.90;;;;;;4948211;28;20253;-71
2023/05/10 00:37:08;;;;;;;2.42;2.22;;;10.70;99.90;;;;;;4946040;28;20835;-72
2023/05/10 00:39:33;;;;;;;2.88;2.40;;;10.80;99.90;;;;;;4948604;28;20551;-72
2023/05/10 00:42:00;;;;;;;2.83;2.33;;;10.90;99.90;;;;;;4944996;28;20084;-65
2023/05/10 00:44:25;;;;;;;2.10;1.90;;;10.90;99.90;;;;;;4947597;28;20035;-65
2023/05/10 00:46:52;;;;;;;2.10;1.90;;;10.90;99.90;;;;;;4946565;28;20629;-65
2023/05/10 00:49:18;;;;;;;2.45;2.25;;;10.90;99.90;;;;;;4944477;28;20133;-69
2023/05/10 00:51:44;;;;;;;1.63;1.52;;;10.90;99.90;;;;;;4945413;28;20034;-66
2023/05/10 00:54:13;;;;;;;4.00;2.70;;;10.90;99.90;;;;;;4946949;28;23046;-63
2023/05/10 00:56:40;;;;;;;2.35;2.15;;;10.90;99.90;;;;;;4944331;28;20035;-65
2023/05/10 00:59:06;;;;;;;2.40;2.20;;;10.90;99.90;;;;;;4941939;28;20034;-69
2023/05/10 01:01:32;;;;;;;2.90;2.50;;;10.90;99.90;;;;;;4945201;28;20163;-63
2023/05/10 01:03:58;;;;;;;4.30;2.28;;;10.90;99.90;;;;;;4947752;28;20085;-63
2023/05/10 01:06:23;;;;;;;1.92;1.83;;;11.00;99.90;;;;;;4942170;28;20046;-64
2023/05/10 01:08:50;;;;;;;3.58;2.30;;;11.00;99.90;;;;;;4943437;28;20032;-64
2023/05/10 01:11:15;;;;;;;2.38;2.17;;;11.10;99.90;;;;;;4946020;28;20061;-64
2023/05/10 01:13:42;;;;;;;3.10;2.50;;;11.20;99.90;;;;;;4945114;28;20098;-64
2023/05/10 01:16:08;;;;;;;2.45;2.25;;;11.30;99.90;;;;;;4946685;28;20117;-64
2023/05/10 01:18:40;;;;;;;2.33;2.13;;;11.30;99.90;;;;;;4943566;28;20035;-71
2023/05/10 01:21:11;;;;;;;2.13;1.92;;;11.30;99.90;;;;;;4946883;28;20426;-64
2023/05/10 01:24:04;;;;;;;2.42;1.80;;;11.30;99.90;;;;;;4943625;28;20105;-64
2023/05/10 01:26:48;;;;;;;;;;;11.20;99.90;;;;;;4947858;28;20159;-64
2023/05/10 01:29:32;;;;;;;2.80;2.20;;;11.10;99.90;;;;;;4941375;28;19914;-64
2023/05/10 01:32:24;;;;;;;2.20;2.00;;;11.10;99.90;;;;;;4945465;28;20429;-64
2023/05/10 01:35:04;;;;;;;3.33;2.30;;;11.10;99.90;;;;;;4948625;28;20054;-64
2023/05/10 01:37:56;;;;;;;2.42;2.00;;;11.10;99.90;;;;;;4944822;28;20027;-64
2023/05/10 01:40:25;;;;;;;2.33;2.07;;;11.20;99.90;;;;;;4941306;28;20126;-71
2023/05/10 01:42:55;;;;;;;3.95;2.50;;;11.20;99.90;;;;;;4949673;28;20355;-71
2023/05/10 01:45:46;;;;;;;2.17;1.70;;;11.20;99.90;;;;;;4949116;28;20030;-72
2023/05/10 01:48:14;;;;;;;3.00;2.47;;;11.20;99.90;;;;;;4949617;28;20038;-72
2023/05/10 01:50:43;;;;;;;4.05;2.40;;;11.10;99.90;;;;;;4947705;28;20050;-72
2023/05/10 01:53:11;;;;;;;3.10;2.28;;;11.00;99.90;;;;;;4948670;28;20030;-71
2023/05/10 01:55:46;;;;;;;2.42;2.10;;;11.00;99.90;;;;;;4943186;28;21314;-72
2023/05/10 01:58:24;;;;;;;3.00;2.40;;;11.00;99.90;;;;;;4939088;28;20043;-72
2023/05/10 02:00:53;;;;;;;2.33;2.10;;;11.00;99.90;;;;;;4949490;28;20783;-71
2023/05/10 02:03:21;;;;;;;4.93;2.20;;;11.00;99.90;;;;;;4953984;28;20027;-72
2023/05/10 02:05:49;;;;;;;3.60;2.55;;;10.90;99.90;;;;;;4947738;28;20038;-71
2023/05/10 02:08:17;;;;;;;4.35;2.13;;;10.90;99.90;;;;;;4953107;28;20154;-72
2023/05/10 02:10:44;;;;;;;3.33;2.30;;;10.90;99.90;;;;;;4952730;28;20818;-72
2023/05/10 02:13:11;;;;;;;8.25;3.40;;;10.80;99.90;;;;;;4955886;28;20475;-72
2023/05/10 02:15:38;;;;;;;6.45;3.20;;;10.80;99.90;;;;;;4960554;28;20122;-72
2023/05/10 02:18:06;;;;;;;4.97;3.10;;;10.80;99.90;;;;;;4949892;28;20031;-64
2023/05/10 02:20:33;;;;;;;3.08;2.65;;;10.80;99.90;;;;;;4947615;28;20046;-65
2023/05/10 02:22:59;;;;;;;4.00;2.92;;;10.70;99.90;;;;;;4950493;28;20566;-65
2023/05/10 02:25:25;;;;;;;3.10;2.60;;;10.70;99.90;;;;;;4947470;28;20121;-65
2023/05/10 02:27:55;;;;;;;3.58;3.00;;;10.60;99.90;;;;;;4949364;28;20058;-65
2023/05/10 02:30:22;;;;;;;6.20;2.83;;;10.60;99.90;;;;;;4944033;28;20031;-65
2023/05/10 02:32:50;;;;;;;3.22;2.70;;;10.50;99.90;;;;;;4943898;28;20030;-65
2023/05/10 02:35:16;;;;;;;2.53;2.30;;;10.50;99.90;;;;;;4952081;28;20039;-72
2023/05/10 02:37:43;;;;;;;5.05;2.72;;;10.50;99.90;;;;;;4951841;28;20820;-72
2023/05/10 02:40:10;;;;;;;2.90;2.60;;;10.40;99.90;;;;;;4949146;28;22510;-72
2023/05/10 02:42:38;;;;;;;4.95;2.95;;;10.40;99.90;;;;;;4952070;28;20030;-72
2023/05/10 02:45:18;;;;;;;2.90;2.53;;;10.40;99.90;;;;;;4953141;28;20042;-72
2023/05/10 02:47:43;;;;;;;2.50;2.28;;;10.40;99.90;;;;;;4947822;28;20062;-73
2023/05/10 02:50:10;;;;;;;3.72;2.78;;;10.40;99.90;;;;;;4948753;28;20895;-73
2023/05/10 02:52:48;;;;;;;4.18;2.70;;;10.40;99.90;;;;;;4951553;28;20043;-73
2023/05/10 02:55:16;;;;;;;3.83;2.17;;;10.40;99.90;;;;;;4951556;28;20042;-66
2023/05/10 02:57:58;;;;;;;3.67;2.10;;;10.40;99.90;;;;;;4952125;28;20425;-65
2023/05/10 03:00:25;;;;;;;2.45;2.17;;;10.40;99.90;;;;;;4946823;28;21203;-67
2023/05/10 03:02:50;;;;;;;3.22;2.20;;;10.30;99.90;;;;;;4953121;28;20692;-66
2023/05/10 03:05:16;;;;;;;2.22;2.03;;;10.30;99.90;;;;;;4946006;28;20047;-66
2023/05/10 03:07:42;;;;;;;2.83;1.90;;;10.20;99.90;;;;;;4955952;28;20043;-66
2023/05/10 03:10:09;;;;;;;3.03;2.28;;;10.20;99.90;;;;;;4952193;28;20023;-67
2023/05/10 03:13:01;;;;;;;2.90;2.15;;;10.20;99.90;;;;;;4949718;28;20027;-73
2023/05/10 03:15:29;;;;;;;4.47;2.40;;;10.20;99.90;;;;;;4948820;28;20141;-74
2023/05/10 03:18:01;;;;;;;2.95;2.53;;;10.30;99.90;;;;;;4954046;28;20066;-74
2023/05/10 03:20:42;;;;;;;2.95;2.40;;;10.30;99.90;;;;;;4948797;28;20124;-74
2023/05/10 03:23:17;;;;;;;4.05;2.15;;;10.30;99.90;;;;;;4950462;28;20035;-74
2023/05/10 03:25:43;;;;;;;2.75;2.42;;;10.30;99.90;;;;;;4955057;28;20031;-74
2023/05/10 03:28:09;;;;;;;2.00;1.90;;;10.40;99.90;;;;;;4948753;28;20031;-74
2023/05/10 03:30:36;;;;;;;3.08;2.55;;;10.40;99.90;;;;;;4948742;28;20387;-73
2023/05/10 03:33:08;;;;;;;2.50;2.20;;;10.50;99.90;;;;;;4953924;28;20031;-66
2023/05/10 03:35:34;;;;;;;2.90;2.60;;;10.60;99.90;;;;;;4956876;28;20110;-66
2023/05/10 03:38:00;;;;;;;4.90;2.70;;;10.60;99.90;;;;;;4954737;28;20041;-66
2023/05/10 03:40:28;;;;;;;3.75;2.72;;;10.70;99.90;;;;;;4952430;28;20049;-66
2023/05/10 03:42:55;;;;;;;3.00;2.58;;;10.80;99.90;;;;;;4957030;28;20088;-66
2023/05/10 03:45:20;;;;;;;3.70;2.35;;;10.80;99.90;;;;;;4949967;28;20117;-66
2023/05/10 03:47:46;;;;;;;4.57;2.75;;;10.90;99.90;;;;;;4951243;28;20141;-66
2023/05/10 03:50:12;;;;;;;4.50;2.00;;;10.90;99.90;;;;;;4952919;28;20479;-66
2023/05/10 03:52:39;;;;;;;2.65;2.15;;;11.00;99.90;;;;;;4945087;28;20061;-66
2023/05/10 03:55:05;;;;;;;4.05;2.65;;;11.00;99.90;;;;;;4948952;28;20034;-66
2023/05/10 03:57:31;;;;;;;3.97;2.97;;;11.00;99.90;;;;;;4947348;28;20061;-66
2023/05/10 03:59:56;;;;;;;3.35;2.33;;;11.00;99.90;;;;;;4945354;28;20153;-66
2023/05/10 04:02:22;;;;;;;2.45;2.25;;;11.00;99.90;;;;;;4949627;28;20055;-64
2023/05/10 04:04:48;;;;;;;7.82;2.70;;;10.90;99.90;;;;;;4947584;28;20066;-64
2023/05/10 04:07:14;;;;;;;3.17;2.33;;;10.90;99.90;;;;;;4947665;28;20118;-65
2023/05/10 04:09:39;;;;;;;2.50;2.30;;;11.00;99.90;;;;;;4955300;28;20041;-65
2023/05/10 04:12:05;;;;;;;3.00;2.35;;;11.00;99.90;;;;;;4952857;28;20037;-72
2023/05/10 04:14:31;;;;;;;3.92;2.58;;;11.10;99.90;;;;;;4949657;28;20089;-72
2023/05/10 04:16:57;;;;;;;2.63;2.25;;;11.10;99.90;;;;;;4944175;28;20790;-72
2023/05/10 04:19:22;;;;;;;5.03;2.67;;;11.20;99.90;;;;;;4947888;28;20038;-72
2023/05/10 04:21:48;;;;;;;3.22;2.50;;;11.20;99.90;;;;;;4951742;28;20060;-72
2023/05/10 04:24:14;;;;;;;3.38;2.70;;;11.20;99.90;;;;;;4948872;28;20058;-72
2023/05/10 04:26:40;;;;;;;3.22;2.67;;;11.20;99.90;;;;;;4950297;28;20105;-72
2023/05/10 04:29:06;;;;;;;2.50;2.30;;;11.20;99.90;;;;;;4935428;28;20030;-71
2023/05/10 04:31:32;;;;;;;8.20;3.85;;;11.30;99.90;;;;;;4947245;28;20031;-64
2023/05/10 04:33:57;;;;;;;4.32;3.30;;;11.30;99.90;;;;;;4952723;28;20421;-65
2023/05/10 04:36:23;;;;;;;5.50;3.05;;;11.40;99.90;;;;;;4950208;28;20019;-63
2023/05/10 04:38:49;;;;;;;5.25;4.07;;;11.40;99.90;;;;;;4949355;28;20038;-63
2023/05/10 04:41:14;;;;;;;8.30;3.08;;;11.40;99.90;;;;;;4948902;28;20034;-63
2023/05/10 04:43:40;;;;;;;6.95;2.90;;;11.40;99.90;;;;;;4940519;28;20057;-63
2023/05/10 04:46:07;;;;;;;2.65;2.28;;;11.50;99.90;;;;;;4953855;28;20035;-69
2023/05/10 04:48:33;;;;;;;6.25;2.75;;;11.50;99.90;;;;;;4949819;28;20091;-71
2023/05/10 04:50:59;;;;;;;5.55;2.33;;;11.60;99.90;;;;;;4950108;28;20041;-64
2023/05/10 04:53:24;;;;;;;3.10;2.58;;;11.60;99.90;;;;;;4947355;28;20686;-64
2023/05/10 04:55:50;;;;;;;3.88;2.60;;;11.60;99.90;;;;;;4951650;28;20046;-64
2023/05/10 04:58:16;;;;;;;2.58;2.35;;;11.70;99.90;;;;;;4950045;28;20488;-64
2023/05/10 05:00:42;;;;;;;5.22;2.97;;;11.70;99.90;;;;;;4948280;28;20041;-64
2023/05/10 05:03:07;;;;;;;4.03;2.42;;;11.70;99.90;;;;;;4939182;28;20571;-64
2023/05/10 05:05:33;;;;;;;3.53;2.58;;;11.80;99.90;;;;;;4956676;28;20041;-64
2023/05/10 05:07:59;;;;;;;5.25;3.15;;;11.90;99.90;;;;;;4940406;28;20034;-71
2023/05/10 05:10:24;;;;;;;3.30;2.63;;;12.10;99.90;;;;;;4934124;28;20030;-71
2023/05/10 05:12:50;;;;;;;3.17;2.58;;;12.10;99.90;;;;;;4933382;28;20034;-70
2023/05/10 05:15:16;;;;;;;3.83;2.33;;;12.20;99.90;;;;;;4945019;28;20082;-70
2023/05/10 05:17:43;;;;;;;3.00;2.75;;;12.20;99.90;;;;;;4943302;28;20033;-70
2023/05/10 05:20:09;;;;;;;3.75;2.88;;;12.30;99.90;;;;;;4938599;28;20337;-69
2023/05/10 05:22:36;;;;;;;4.72;2.22;;;12.40;99.90;;;;;;4941673;28;20059;-70
2023/05/10 05:25:03;;;;;;;2.85;2.60;;;12.40;99.90;;;;;;4945433;28;20038;-69
2023/05/10 05:27:29;;;;;;;2.90;2.60;;;12.50;99.90;;;;;;4944224;28;20031;-69
2023/05/10 05:29:58;;;;;;;3.78;2.78;;;12.50;99.90;;;;;;4944556;28;20122;-69
2023/05/10 05:32:24;;;;;;;4.00;2.38;;;12.50;99.90;;;;;;4942811;28;20595;-69
2023/05/10 05:34:51;;;;;;;3.15;2.72;;;12.60;99.90;;;;;;4945657;28;20035;-68
2023/05/10 05:37:20;;;;;;;3.10;2.80;;;12.70;99.90;;;;;;4945426;28;20028;-68
2023/05/10 05:39:46;;;;;;;3.50;2.53;;;12.70;99.90;;;;;;4944312;28;20121;-68
2023/05/10 05:42:13;;;;;;;3.35;2.38;;;12.70;99.90;;;;;;4954144;28;20031;-68
2023/05/10 05:44:39;;;;;;;2.63;2.42;;;12.70;99.90;;;;;;4954978;28;20027;-68
2023/05/10 05:47:05;;;;;;;2.63;2.42;;;12.80;99.90;;;;;;4951363;28;20143;-66
2023/05/10 05:49:31;;;;;;;4.05;2.50;;;12.80;99.90;;;;;;4954075;28;20683;-66
2023/05/10 05:52:01;;;;;;;5.22;3.22;;;12.90;99.90;;;;;;4948893;28;20035;-66
2023/05/10 05:54:27;;;;;;;3.70;2.60;;;13.00;99.90;;;;;;4953183;28;20093;-66
2023/05/10 05:56:58;;;;;;;4.03;2.80;;;13.10;99.90;;;;;;4962500;28;20030;-66
2023/05/10 05:59:24;;;;;;;3.35;2.63;;;13.20;99.90;;;;;;4954769;28;20066;-66
2023/05/10 06:01:49;;;;;;;3.80;2.60;;;13.20;99.90;;;;;;4949732;28;20149;-66
2023/05/10 06:04:15;;;;;;;2.53;2.33;;;13.30;99.90;;;;;;4952276;28;20031;-66
2023/05/10 06:06:42;;;;;;;2.72;2.45;;;13.30;99.90;;;;;;4958036;28;20150;-66
2023/05/10 06:09:08;;;;;;;2.85;2.25;;;13.30;99.90;;;;;;4949975;28;20030;-66
2023/05/10 06:11:34;;;;;;;2.90;2.50;;;13.50;99.90;;;;;;4951687;28;20507;-66
2023/05/10 06:14:00;;;;;;;2.80;2.60;;;13.70;99.90;;;;;;4953651;28;20036;-66
2023/05/10 06:16:26;;;;;;;3.38;2.78;;;13.80;99.90;;;;;;4955161;28;20039;-65
2023/05/10 06:18:52;;;;;;;3.30;2.47;;;13.80;99.90;;;;;;4948143;28;20487;-66
2023/05/10 06:21:17;;;;;;;3.50;2.70;;;13.90;99.90;;;;;;4950847;28;20044;-65
2023/05/10 06:23:43;;;;;;;2.50;2.30;;;14.00;99.90;;;;;;4941709;28;20027;-69
2023/05/10 06:26:09;;;;;;;4.20;2.60;;;14.10;99.90;;;;;;4952744;28;20158;-69
2023/05/10 06:28:38;;;;;;;3.83;2.80;;;14.00;99.90;;;;;;4949137;28;20558;-69
2023/05/10 06:31:04;;;;;;;4.15;2.50;;;14.00;99.90;;;;;;4942857;28;20070;-69
2023/05/10 06:33:29;;;;;;;4.60;2.63;;;14.10;99.90;;;;;;4961028;28;20109;-69
2023/05/10 06:35:55;;;;;;;6.20;3.28;;;14.20;99.90;;;;;;4955815;28;20034;-69
2023/05/10 06:38:21;;;;;;;3.83;2.92;;;14.40;99.90;;;;;;4957103;28;20065;-69
2023/05/10 06:40:47;;;;;;;3.28;2.55;;;14.50;99.90;;;;;;4956213;28;20113;-69
2023/05/10 06:43:13;;;;;;;2.75;2.50;;;14.50;99.90;;;;;;4955698;28;20031;-69
2023/05/10 06:45:38;;;;;;;3.97;2.78;;;14.70;99.90;;;;;;4959080;28;20031;-70
2023/05/10 06:48:04;;;;;;;3.40;3.10;;;14.80;99.90;;;;;;4957354;28;20034;-70
2023/05/10 06:50:30;;;;;;;6.22;2.88;;;15.00;99.90;;;;;;4955688;28;20034;-69
2023/05/10 06:52:55;;;;;;;3.03;2.40;;;15.00;99.90;;;;;;4953736;28;20041;-70
2023/05/10 06:55:21;;;;;;;3.58;2.20;;;15.00;99.90;;;;;;4951464;28;20030;-69
2023/05/10 06:57:47;;;;;;;3.65;2.90;;;15.10;99.90;;;;;;4954447;28;20392;-68
2023/05/10 07:00:14;;;;;;;3.88;3.15;;;15.00;99.90;;;;;;4951828;28;20157;-68
2023/05/10 07:02:39;;;;;;;3.28;2.97;;;14.90;99.90;;;;;;4960533;28;20601;-68
2023/05/10 07:05:06;;;;;;;3.40;3.10;;;14.70;99.90;;;;;;4954566;28;20055;-68
2023/05/10 07:07:31;;;;;;;4.65;3.13;;;14.60;99.90;;;;;;4953257;28;20498;-69
2023/05/10 07:09:57;;;;;;;2.75;2.55;;;14.60;99.90;;;;;;4958167;28;20035;-68
2023/05/10 07:12:23;;;;;;;5.07;2.40;;;14.70;99.90;;;;;;4957015;28;20112;-68
2023/05/10 07:14:49;;;;;;;2.80;2.60;;;14.70;99.90;;;;;;4959116;28;20058;-68
2023/05/10 07:17:15;;;;;;;5.50;2.83;;;14.70;99.90;;;;;;4956075;28;20539;-68
2023/05/10 07:19:40;;;;;;;3.00;2.63;;;14.90;99.90;;;;;;4950106;28;20183;-69
2023/05/10 07:22:06;;;;;;;3.22;2.70;;;14.90;99.90;;;;;;4952238;28;20035;-69
2023/05/10 07:24:33;;;;;;;2.55;2.35;;;15.00;99.90;;;;;;4949747;28;20023;-69
2023/05/10 07:26:58;;;;;;;2.75;2.45;;;15.00;99.90;;;;;;4957181;28;20050;-69
2023/05/10 07:29:24;;;;;;;3.42;2.30;;;15.10;99.90;;;;;;4949934;28;20039;-69
2023/05/10 07:31:50;;;;;;;5.35;2.50;;;15.10;99.90;;;;;;4953232;28;20114;-69
2023/05/10 07:34:15;;;;;;;3.38;2.50;;;15.30;99.90;;;;;;4958754;28;20434;-69
2023/05/10 07:36:41;;;;;;;5.45;2.40;;;15.50;99.90;;;;;;4947379;28;20554;-69
2023/05/10 07:39:07;;;;;;;2.35;2.15;;;15.60;99.90;;;;;;4945391;28;20495;-69
2023/05/10 07:41:33;;;;;;;3.60;2.50;;;15.60;99.90;;;;;;4951430;28;20470;-69
2023/05/10 07:43:58;;;;;;;3.42;2.20;;;15.40;99.90;;;;;;4952404;28;20669;-69
2023/05/10 07:46:24;;;;;;;3.65;2.55;;;15.20;99.90;;;;;;4946851;28;20078;-69
2023/05/10 07:48:50;;;;;;;2.80;2.60;;;15.00;99.90;;;;;;4948328;28;20038;-69
2023/05/10 07:51:15;;;;;;;8.93;2.67;;;15.00;99.90;;;;;;4951886;28;20031;-69
2023/05/10 07:53:41;;;;;;;3.15;2.08;;;15.20;99.90;;;;;;4951914;28;20041;-69
2023/05/10 07:56:26;;;;;;;4.80;3.28;;;15.30;99.90;;;;;;4949275;28;20166;-63
2023/05/10 07:58:52;;;;;;;5.65;2.33;;;15.30;99.90;;;;;;4937418;28;20462;-65
2023/05/10 08:01:17;;;;;;;3.58;2.45;;;15.50;99.90;;;;;;4945227;28;20062;-69
2023/05/10 08:03:43;;;;;;;2.60;2.40;;;15.70;99.90;;;;;;4947127;28;20027;-70
2023/05/10 08:06:09;;;;;;;3.17;2.38;;;15.70;99.90;;;;;;4950329;28;20038;-69
2023/05/10 08:08:34;;;;;;;3.60;2.80;;;15.60;99.90;;;;;;4948093;28;20034;-69
2023/05/10 08:11:00;;;;;;;3.30;2.47;;;15.40;99.90;;;;;;4953493;28;20034;-69
2023/05/10 08:13:26;;;;;;;2.63;2.30;;;15.40;99.90;;;;;;4951902;28;20718;-69
2023/05/10 08:15:52;;;;;;;6.20;2.30;;;15.20;99.90;;;;;;4953729;28;20070;-68
2023/05/10 08:18:19;;;;;;;2.65;2.42;;;15.20;99.90;;;;;;4954261;28;20030;-65
2023/05/10 08:20:44;;;;;;;2.80;2.42;;;15.10;99.90;;;;;;4953449;28;20105;-69
2023/05/10 08:23:12;;;;;;;2.50;2.30;;;15.10;99.90;;;;;;4953788;28;21025;-69
2023/05/10 08:25:37;;;;;;;2.85;2.65;;;15.10;99.90;;;;;;4950195;28;20026;-69
2023/05/10 08:28:03;;;;;;;8.07;2.42;;;15.10;99.90;;;;;;4953968;28;20033;-69
2023/05/10 08:30:29;;;;;;;3.33;2.33;;;15.10;99.90;;;;;;4949242;28;20035;-69
2023/05/10 08:32:55;;;;;;;4.15;2.90;;;15.00;99.90;;;;;;4949980;28;20036;-69
2023/05/10 08:35:20;;;;;;;3.08;2.28;;;15.00;99.90;;;;;;4954680;28;20061;-69
2023/05/10 08:37:46;;;;;;;3.25;2.95;;;14.90;99.90;;;;;;4953827;28;20035;-66
2023/05/10 08:40:12;;;;;;;2.97;2.72;;;15.00;99.90;;;;;;4952037;28;20045;-66
2023/05/10 08:42:43;;;;;;;2.58;2.20;;;15.00;99.90;;;;;;4954600;28;20031;-65
2023/05/10 08:45:10;;;;;;;9.93;4.65;;;15.00;99.90;;;;;;4955791;28;20034;-65
2023/05/10 08:47:38;;;;;;;2.58;2.15;;;15.00;99.90;;;;;;4952029;28;20041;-65
2023/05/10 08:50:04;;;;;;;2.60;2.40;;;15.10;99.90;;;;;;4950568;28;20030;-66
2023/05/10 08:52:32;;;;;;;2.45;2.25;;;15.20;99.90;;;;;;4950258;28;20031;-66
2023/05/10 08:54:58;;;;;;;2.72;2.10;;;15.40;99.90;;;;;;4949421;28;20023;-65
2023/05/10 08:57:24;;;;;;;9.93;2.88;;;15.60;99.90;;;;;;4951173;28;20566;-69
2023/05/10 08:59:50;;;;;;;4.00;2.28;;;15.70;99.90;;;;;;4963808;28;20045;-68
2023/05/10 09:02:18;;;;;;;2.83;2.28;;;15.70;99.90;;;;;;4940262;28;20051;-69
2023/05/10 09:04:44;;;;;;;3.30;2.53;;;15.70;99.90;;;;;;4948163;28;20134;-69
2023/05/10 09:07:11;;;;;;;3.38;2.17;;;15.90;99.90;;;;;;4951695;28;20027;-68
2023/05/10 09:09:37;;;;;;;2.67;2.47;;;16.00;99.90;;;;;;4954996;28;20023;-68
2023/05/10 09:12:03;;;;;;;2.42;2.22;;;15.90;99.90;;;;;;4950059;28;20045;-69
2023/05/10 09:14:30;;;;;;;2.45;2.25;;;15.80;99.90;;;;;;4956074;28;20626;-69
2023/05/10 09:16:56;;;;;;;2.10;1.90;;;15.70;99.90;;;;;;4946830;28;20045;-66
2023/05/10 09:19:22;;;;;;;3.08;2.05;;;15.60;99.90;;;;;;4948366;28;20696;-66
2023/05/10 09:21:49;;;;;;;3.10;2.05;;;15.60;99.90;;;;;;4947757;28;20027;-66
2023/05/10 09:24:15;;;;;;;6.20;2.92;;;15.60;99.90;;;;;;4951447;28;20919;-66
2023/05/10 09:26:50;;;;;;;9.85;3.47;;;15.70;99.90;;;;;;4952589;28;20030;-66
2023/05/10 09:29:17;;;;;;;2.83;2.60;;;15.60;99.90;;;;;;4947219;28;20080;-66
2023/05/10 09:31:46;;;;;;;2.97;2.67;;;15.70;99.90;;;;;;4950743;28;20031;-66
2023/05/10 09:34:16;;;;;;;8.80;5.63;;;15.80;99.90;;;;;;4949679;28;20379;-66
2023/05/10 09:36:57;;;;;;;6.07;4.68;;;15.90;99.90;;;;;;4949644;28;20114;-66
2023/05/10 09:39:43;;;;;;;3.78;2.47;;;15.80;99.90;;;;;;4949999;28;20129;-66
2023/05/10 09:42:10;;;;;;;2.63;2.42;;;15.80;99.90;;;;;;4951866;28;20043;-66
2023/05/10 09:44:36;;;;;;;3.00;2.28;;;15.70;99.90;;;;;;4952673;28;20042;-66
2023/05/10 09:47:02;;;;;;;2.78;2.53;;;15.80;99.90;;;;;;4949041;28;20395;-66
2023/05/10 09:49:28;;;;;;;4.00;2.20;;;15.80;99.90;;;;;;4947797;28;20122;-66
2023/05/10 09:52:05;;;;;;;3.15;2.20;;;15.90;99.90;;;;;;4940096;28;20031;-66
2023/05/10 09:54:32;;;;;;;3.75;2.00;;;16.10;99.90;;;;;;4942912;28;20094;-69
2023/05/10 09:56:57;;;;;;;4.45;2.10;;;16.10;99.90;;;;;;4944813;28;20039;-70
2023/05/10 09:59:26;;;;;;;3.80;2.47;;;16.10;99.90;;;;;;4958288;28;20039;-70
2023/05/10 10:01:53;;;;;;;2.65;2.45;;;16.10;99.90;;;;;;4952065;28;21268;-70
2023/05/10 10:04:21;;;;;;;5.43;2.10;;;16.10;99.90;;;;;;4957418;28;20034;-70
2023/05/10 10:06:57;;;;;;;2.78;2.15;;;16.20;99.90;;;;;;4957531;28;20038;-70
2023/05/10 10:09:24;;;;;;;2.28;2.10;;;16.40;99.90;;;;;;4950617;28;20495;-70
2023/05/10 10:11:50;;;;;;;2.13;1.92;;;16.50;99.90;;;;;;4956858;28;20061;-71
2023/05/10 10:14:18;;;;;;;2.72;2.33;;;16.60;99.90;;;;;;4956088;28;20034;-69
2023/05/10 10:16:44;;;;;;;2.20;2.00;;;16.70;99.90;;;;;;4951123;28;20053;-70
2023/05/10 10:19:10;;;;;;;3.42;2.33;;;16.80;99.90;;;;;;4951664;28;20491;-69
2023/05/10 10:21:36;;;;;;;3.53;2.55;;;16.70;99.90;;;;;;4960390;28;20042;-70
2023/05/10 10:24:05;;;;;;;3.20;2.90;;;16.60;99.90;;;;;;4954239;28;20031;-69
2023/05/10 10:26:30;;;;;;;6.35;3.72;;;16.70;99.90;;;;;;4955606;28;20047;-69
2023/05/10 10:29:24;;;;;;;3.22;2.17;;;16.70;99.90;;;;;;4956004;28;20097;-68
2023/05/10 10:32:02;;;;;;;8.75;1.73;;;16.90;99.90;;;;;;4960375;28;20119;-69
2023/05/10 10:34:29;;;;;;;1.70;1.60;;;16.90;99.90;;;;;;4952935;28;20894;-68
2023/05/10 10:36:56;;;;;;;2.10;1.90;;;16.90;99.90;;;;;;4956399;28;20042;-69
2023/05/10 10:39:27;;;;;;;2.47;1.95;;;16.90;99.90;;;;;;4957296;28;20027;-69
2023/05/10 10:41:57;;;;;;;2.60;2.00;;;17.00;99.90;;;;;;4954239;28;20634;-70
2023/05/10 10:44:25;;;;;;;5.80;2.00;;;16.90;99.90;;;;;;4958020;28;20053;-69
2023/05/10 10:47:24;;;;;;;6.15;1.77;;;16.90;99.90;;;;;;4958716;28;20480;-69
2023/05/10 10:50:00;;;;;;;1.65;1.55;;;17.00;99.90;;;;;;4954192;28;20031;-68
2023/05/10 10:52:42;;;;;;;2.88;1.52;;;17.20;99.90;;;;;;4968327;28;20027;-68
2023/05/10 10:55:12;;;;;;;;;;;17.30;99.90;;;;;;4955792;28;20219;-74
2023/05/10 10:57:40;;;;;;;1.60;1.42;;;17.30;99.90;;;;;;4955555;28;19910;-70
2023/05/10 11:00:31;;;;;;;1.98;1.58;;;17.30;99.90;;;;;;4956673;28;20046;-73
2023/05/10 11:03:14;;;;;;;2.20;1.50;;;17.20;99.90;;;;;;4954057;28;20066;-73
2023/05/10 11:05:51;;;;;;;1.52;1.23;;;17.20;99.90;;;;;;4955353;28;20384;-74
2023/05/10 11:08:18;;;;;;;2.10;1.50;;;17.30;99.90;;;;;;4950297;28;20089;-72
2023/05/10 11:11:17;;;;;;;2.80;1.70;;;17.40;99.90;;;;;;4957442;28;20030;-74
2023/05/10 11:13:49;;;;;;;2.22;1.98;;;17.40;99.90;;;;;;4947059;28;20179;-73
2023/05/10 11:16:25;;;;;;;1.50;1.40;;;17.50;99.90;;;;;;4951242;28;20421;-73
2023/05/10 11:19:03;;;;;;;1.80;1.40;;;17.60;99.90;;;;;;4954745;28;20046;-74
2023/05/10 11:21:32;;;;;;;4.70;1.60;;;17.70;99.90;;;;;;4948352;28;20039;-73
2023/05/10 11:24:00;;;;;;;3.42;1.65;;;17.70;99.90;;;;;;4949759;28;20026;-73
2023/05/10 11:26:31;;;;;;;1.88;1.38;;;17.70;99.90;;;;;;4955383;28;20898;-75
2023/05/10 11:28:58;;;;;;;3.72;1.65;;;17.60;99.90;;;;;;4949371;28;20061;-75
2023/05/10 11:31:26;;;;;;;1.50;1.40;;;17.50;99.90;;;;;;4949053;28;20058;-66
2023/05/10 11:33:57;;;;;;;2.17;1.23;;;17.50;99.90;;;;;;4951070;28;20027;-66
2023/05/10 11:36:27;;;;;;;1.58;1.25;;;17.50;99.90;;;;;;4954698;28;20035;-66
2023/05/10 11:38:53;;;;;;;2.10;1.23;;;17.70;99.90;;;;;;4951751;28;20038;-66
2023/05/10 11:41:21;;;;;;;1.50;1.40;;;17.70;99.90;;;;;;4952167;28;20035;-66
2023/05/10 11:43:49;;;;;;;1.52;1.33;;;17.70;99.90;;;;;;4953058;28;20078;-66
2023/05/10 11:46:20;;;;;;;1.27;1.15;;;17.80;99.90;;;;;;4954667;28;20530;-66
2023/05/10 11:48:46;;;;;;;1.20;1.10;;;17.70;99.50;;;;;;4948436;28;20142;-74
2023/05/10 11:51:12;;;;;;;2.03;1.50;;;17.70;98.80;;;;;;4956582;28;20205;-65
2023/05/10 11:53:38;;;;;;;4.68;1.27;;;17.70;99.10;;;;;;4955270;28;20026;-66
2023/05/10 11:56:08;;;;;;;1.30;1.20;;;17.80;98.30;;;;;;4956813;28;20418;-66
2023/05/10 11:58:35;;;;;;;1.40;1.02;;;17.80;98.20;;;;;;4953479;28;20042;-66
2023/05/10 12:01:01;;;;;;;1.40;1.30;;;17.70;97.90;;;;;;4953199;28;20244;-66
2023/05/10 12:03:28;;;;;;;2.00;1.20;;;17.70;99.80;;;;;;4952135;28;20065;-66
2023/05/10 12:05:55;;;;;;;2.55;1.63;;;17.70;99.40;;;;;;4948630;28;20024;-66
2023/05/10 12:08:23;;;;;;;1.98;1.35;;;17.60;99.00;;;;;;4950089;28;20637;-72
2023/05/10 12:10:49;;;;;;;2.45;1.50;;;17.70;98.20;;;;;;4946612;28;20034;-75
2023/05/10 12:13:15;;;;;;;1.73;1.20;;;17.60;97.90;;;;;;4953800;28;20810;-73
2023/05/10 12:15:42;;;;;;;1.25;1.00;;;17.70;98.30;;;;;;4950426;28;20633;-72
2023/05/10 12:18:12;;;;;;;1.30;1.20;;;17.70;97.10;;;;;;4950501;28;20117;-74
2023/05/10 12:20:38;;;;;;;2.75;1.38;;;17.80;98.80;;;;;;4950561;28;20047;-73
2023/05/10 12:23:05;;;;;;;1.55;1.20;;;17.80;97.70;;;;;;4950349;28;20030;-74
2023/05/10 12:25:32;;;;;;;1.17;1.08;;;17.80;98.10;;;;;;4949292;28;20027;-72
2023/05/10 12:28:03;;;;;;;1.30;1.13;;;17.90;98.20;;;;;;4948459;28;20019;-73
2023/05/10 12:30:32;;;;;;;2.97;1.05;;;18.00;97.90;;;;;;4946510;28;20811;-72
2023/05/10 12:33:07;;;;;;;3.15;1.35;;;18.00;97.40;;;;;;4954382;28;20590;-73
2023/05/10 12:35:33;;;;;;;1.80;1.00;;;18.20;97.80;;;;;;4949656;28;20065;-72
2023/05/10 12:37:59;;;;;;;4.50;1.08;;;18.30;96.40;;;;;;4955135;28;20058;-73
2023/05/10 12:40:25;;;;;;;5.03;1.23;;;18.30;96.30;;;;;;4949553;28;20051;-73
2023/05/10 12:42:52;;;;;;;3.55;1.17;;;18.40;98.30;;;;;;4951282;28;20038;-72
2023/05/10 12:45:18;;;;;;;1.27;1.05;;;18.50;96.60;;;;;;4949754;28;20142;-66
2023/05/10 12:47:44;;;;;;;1.73;0.88;;;18.40;96.40;;;;;;4952161;28;20027;-73
2023/05/10 12:50:10;;;;;;;3.40;1.08;;;18.20;95.70;;;;;;4955449;28;20045;-72
2023/05/10 12:52:36;;;;;;;1.02;0.90;;;18.30;96.00;;;;;;4950394;28;20026;-72